Language: 


Des rapports , des résumés tant et plus, au choix de chacun....


Données statistiques de la station
Quotidien Rapport Avril 25, 2017 Unités:  Anglais    Métrique   les deux
« Précédent Jour
Suivant Jour »
Quotidien Hebdomadaire Mensuel Annuel Actuel
  Haut: Bas: Moyen:
Température: 56.8 °F 32 °F 46.9 °F
Pt de rosée: 44.6 °F 19.4 °F 31.5 °F
Humidité: 92 % 0 % 55 %
Vitesse du vent: 14.5 mph 0 mph 4.6 mph
Rafales: 15.7 mph - -
Vent:- - West
Pression: 29.9 in 0 in -
Précipitation: 0 in    
Historical Graphs
 
 
Données statistiques pour Avril 25, 2017
Heure Température Point de rosée Pression Vent Vitesse du vent Refales Humidité Pluie (taux horaire)
00:03 48.6 °F 44.6 °F 29.8 in North 6 mph 11.2 mph 86 % 0 in
00:08 48.4 °F 44.6 °F 29.8 in NNE 4 mph 11.2 mph 86 % 0 in
00:13 48.2 °F 44.6 °F 29.8 in NNW 3.1 mph 7.4 mph 87 % 0 in
00:18 48 °F 44.6 °F 29.8 in NNW 4 mph 7.4 mph 87 % 0 in
00:23 48 °F 44.6 °F 29.8 in NNW 2.2 mph 6.5 mph 88 % 0 in
00:28 47.8 °F 44.6 °F 29.8 in North 7.4 mph 7.4 mph 88 % 0 in
00:34 47.8 °F 44.6 °F 29.8 in NW 3.1 mph 7.4 mph 88 % 0 in
00:39 47.8 °F 44.6 °F 29.8 in North 1.1 mph 4.7 mph 88 % 0 in
00:44 47.7 °F 44.6 °F 29.8 in North 6 mph 6 mph 88 % 0 in
00:49 47.7 °F 44.6 °F 29.8 in WNW 3.6 mph 6 mph 89 % 0 in
00:54 47.5 °F 44.6 °F 29.8 in Calm   6 mph 89 % 0 in
00:59 47.5 °F 44.6 °F 29.8 in Calm   6 mph 89 % 0 in
01:04 47.5 °F 44.6 °F 29.8 in Calm   3.6 mph 89 % 0 in
01:09 47.3 °F 44.6 °F 29.8 in NE 0.9 mph 3.6 mph 90 % 0 in
01:14 47.3 °F 44.6 °F 29.8 in WNW 1.1 mph 3.1 mph 90 % 0 in
01:19 47.3 °F 44.6 °F 29.8 in Calm   2.9 mph 90 % 0 in
01:24 47.3 °F 44.6 °F 29.8 in West 1.3 mph 3.1 mph 90 % 0 in
01:29 47.1 °F 44.6 °F 29.8 in WSW 2.5 mph 3.1 mph 90 % 0 in
01:34 47.1 °F 44.6 °F 29.8 in West 4 mph 4.7 mph 90 % 0 in
01:39 47.1 °F 44.6 °F 29.8 in West 3.8 mph 4.7 mph 90 % 0 in
01:44 47.1 °F 44.6 °F 29.8 in West 3.4 mph 4.3 mph 90 % 0 in
01:49 46.9 °F 44.6 °F 29.8 in West 2.9 mph 4.3 mph 90 % 0 in
01:54 46.9 °F 44.6 °F 29.8 in West 2.5 mph 4.3 mph 90 % 0 in
01:59 46.9 °F 44.6 °F 29.8 in WSW 2.9 mph 4.3 mph 91 % 0 in
02:04 46.9 °F 44.6 °F 29.8 in Calm   4.3 mph 91 % 0 in
02:09 46.9 °F 44.6 °F 29.8 in West 4.3 mph 5.6 mph 91 % 0 in
02:14 46.9 °F 44.6 °F 29.8 in West 5.8 mph 6.5 mph 91 % 0 in
02:19 46.9 °F 44.6 °F 29.8 in West 3.4 mph 6.5 mph 92 % 0 in
02:24 46.9 °F 44.6 °F 29.8 in WNW 3.1 mph 8.7 mph 92 % 0 in
02:30 46.9 °F 44.6 °F 29.8 in West 5.4 mph 8.7 mph 92 % 0 in
02:35 46.8 °F 44.6 °F 29.8 in NNW 3.4 mph 8.5 mph 90 % 0 in
02:40 46.8 °F 42.8 °F 29.8 in North 9.8 mph 10.1 mph 83 % 0 in
02:45 46.4 °F 41 °F 29.8 in WNW 7.8 mph 10.1 mph 78 % 0 in
02:50 46.4 °F 39.2 °F 29.8 in NNW 4 mph 10.7 mph 76 % 0 in
02:55 46.2 °F 39.2 °F 29.8 in WNW 5.4 mph 10.7 mph 75 % 0 in
03:00 46 °F 37.4 °F 29.8 in WNW 4 mph 9.6 mph 74 % 0 in
03:05 45.9 °F 37.4 °F 29.8 in NNW 3.4 mph 9.6 mph 71 % 0 in
03:10 45.9 °F 37.4 °F 29.8 in NW 6.9 mph 9.2 mph 71 % 0 in
04:37 32 °F 35.6 °F 0 in Calm     0 % 0 in
04:42 43.3 °F 32 °F 29.8 in Calm   6.3 mph 62 % 0 in
04:47 43.2 °F 30.2 °F 29.8 in NNW 4 mph 10.3 mph 61 % 0 in
04:52 43 °F 30.2 °F 29.8 in West 5.4 mph 10.3 mph 61 % 0 in
04:57 43 °F 30.2 °F 29.8 in West 3.6 mph 8.5 mph 61 % 0 in
05:02 42.8 °F 30.2 °F 29.8 in NNE 3.1 mph 8.7 mph 60 % 0 in
05:07 42.4 °F 30.2 °F 29.8 in North 3.6 mph 8.7 mph 61 % 0 in
05:11 42.3 °F 30.2 °F 29.8 in NNW 2.5 mph 8.1 mph 61 % 0 in
05:17 42.1 °F 30.2 °F 29.8 in South 0.9 mph 8.1 mph 61 % 0 in
05:22 41.9 °F 30.2 °F 29.8 in NNW 3.6 mph 11.9 mph 61 % 0 in
05:27 41.7 °F 30.2 °F 29.8 in WNW 2.2 mph 11.9 mph 61 % 0 in
05:32 41.5 °F 30.2 °F 29.8 in NW 1.6 mph 7.2 mph 60 % 0 in
05:37 41.5 °F 30.2 °F 29.8 in NE 2.5 mph 6.5 mph 60 % 0 in
05:42 41.4 °F 28.4 °F 29.8 in WNW 6 mph 6.9 mph 60 % 0 in
05:47 41.2 °F 28.4 °F 29.8 in WNW 3.8 mph 6.9 mph 61 % 0 in
05:52 41 °F 28.4 °F 29.8 in West 2.7 mph 6.5 mph 61 % 0 in
05:57 40.8 °F 28.4 °F 29.8 in West 6 mph 8.1 mph 62 % 0 in
06:02 40.6 °F 28.4 °F 29.8 in NNW 2 mph 8.1 mph 62 % 0 in
06:07 40.5 °F 28.4 °F 29.8 in WNW 2.9 mph 7.6 mph 63 % 0 in
06:12 40.3 °F 28.4 °F 29.8 in ENE 1.6 mph 6 mph 63 % 0 in
06:17 40.3 °F 28.4 °F 29.8 in West 2.7 mph 6 mph 63 % 0 in
06:22 40.1 °F 28.4 °F 29.8 in NNW 3.6 mph 5.4 mph 63 % 0 in
06:27 40.1 °F 30.2 °F 29.8 in WNW 1.6 mph 6.3 mph 64 % 0 in
06:32 39.9 °F 28.4 °F 29.8 in West 0.9 mph 6.3 mph 64 % 0 in
06:37 39.7 °F 28.4 °F 29.8 in Calm   5.8 mph 64 % 0 in
06:42 39.4 °F 28.4 °F 29.8 in West 3.8 mph 3.8 mph 65 % 0 in
06:47 39.4 °F 28.4 °F 29.8 in West 2.5 mph 3.8 mph 65 % 0 in
06:52 39.2 °F 28.4 °F 29.8 in West 1.6 mph 3.6 mph 66 % 0 in
06:57 38.8 °F 28.4 °F 29.8 in WNW 3.4 mph 3.8 mph 66 % 0 in
07:02 38.8 °F 28.4 °F 29.8 in West 2.5 mph 4 mph 66 % 0 in
07:08 38.7 °F 28.4 °F 29.8 in West 1.1 mph 5.4 mph 67 % 0 in
07:13 38.5 °F 28.4 °F 29.8 in West 2 mph 5.4 mph 67 % 0 in
07:18 38.3 °F 28.4 °F 29.8 in West 3.1 mph 4 mph 67 % 0 in
07:23 38.1 °F 28.4 °F 29.8 in West 2.7 mph 3.8 mph 68 % 0 in
07:28 38.1 °F 28.4 °F 29.8 in West 3.6 mph 4.3 mph 68 % 0 in
07:33 37.9 °F 28.4 °F 29.8 in West 3.6 mph 4.3 mph 69 % 0 in
07:38 37.9 °F 28.4 °F 29.8 in West 3.6 mph 4 mph 69 % 0 in
07:43 38.1 °F 28.4 °F 29.8 in NW 2.2 mph 4 mph 69 % 0 in
07:48 38.5 °F 30.2 °F 29.8 in West 4.9 mph 5.6 mph 70 % 0 in
07:53 39.4 °F 30.2 °F 29.8 in West 3.1 mph 5.6 mph 70 % 0 in
07:58 40.1 °F 32 °F 29.8 in West 3.8 mph 4.9 mph 70 % 0 in
08:03 40.6 °F 32 °F 29.8 in WSW 5.4 mph 5.6 mph 70 % 0 in
08:08 41 °F 32 °F 29.8 in West 5.6 mph 6.5 mph 69 % 0 in
08:13 41.5 °F 32 °F 29.8 in West 7.4 mph 8.1 mph 69 % 0 in
08:18 41.9 °F 33.8 °F 29.8 in West 5.6 mph 8.1 mph 69 % 0 in
08:23 42.4 °F 33.8 °F 29.8 in West 5.6 mph 8.5 mph 69 % 0 in
08:28 43 °F 33.8 °F 29.8 in WSW 3.8 mph 8.5 mph 68 % 0 in
08:33 43.2 °F 33.8 °F 29.8 in West 7.2 mph 8.9 mph 68 % 0 in
08:38 43.9 °F 33.8 °F 29.8 in WSW 7.6 mph 8.9 mph 67 % 0 in
08:43 44.6 °F 33.8 °F 29.8 in WSW 6 mph 8.7 mph 66 % 0 in
08:48 44.8 °F 33.8 °F 29.8 in West 4.9 mph 8.7 mph 64 % 0 in
08:52 45.1 °F 33.8 °F 29.8 in West 5.8 mph 10.7 mph 63 % 0 in
08:57 45.9 °F 33.8 °F 29.8 in WSW 5.8 mph 10.7 mph 62 % 0 in
09:02 46.2 °F 33.8 °F 29.8 in NNW 5.8 mph 8.9 mph 61 % 0 in
09:07 46.6 °F 33.8 °F 29.9 in NNW 7.4 mph 8.9 mph 59 % 0 in
09:12 46.9 °F 33.8 °F 29.9 in NNW 6.5 mph 8.7 mph 57 % 0 in
09:17 47.5 °F 33.8 °F 29.9 in NNW 4.3 mph 8.5 mph 56 % 0 in
09:22 47.8 °F 33.8 °F 29.9 in WNW 5.6 mph 11.9 mph 55 % 0 in
09:27 47.8 °F 32 °F 29.9 in WSW 6.5 mph 12.1 mph 52 % 0 in
09:32 48.7 °F 32 °F 29.9 in North 2.5 mph 12.1 mph 51 % 0 in
09:37 49.3 °F 32 °F 29.9 in NNW 6.5 mph 10.3 mph 51 % 0 in
09:42 48 °F 30.2 °F 29.9 in WSW 3.1 mph 11 mph 48 % 0 in
09:47 47.8 °F 30.2 °F 29.9 in WNW 8.5 mph 13.2 mph 49 % 0 in
09:52 48 °F 30.2 °F 29.9 in North 3.1 mph 13.2 mph 49 % 0 in
09:57 48.7 °F 30.2 °F 29.9 in West 3.8 mph 6.9 mph 49 % 0 in
10:02 48.9 °F 30.2 °F 29.9 in West 5.4 mph 15.7 mph 49 % 0 in
10:07 47.8 °F 30.2 °F 29.9 in West 4.3 mph 15.7 mph 49 % 0 in
10:12 47.7 °F 30.2 °F 29.9 in WNW 6 mph 14.5 mph 49 % 0 in
10:13 47.8 °F 30.2 °F 29.9 in NNW 4.9 mph 14.5 mph 50 % 0 in
10:18 47.7 °F 30.2 °F 29.9 in NW 8.5 mph 14.5 mph 51 % 0 in
10:23 47.1 °F 30.2 °F 29.9 in WNW 8.1 mph 10.5 mph 51 % 0 in
10:28 48.6 °F 32 °F 29.9 in NNW 4 mph 9.8 mph 52 % 0 in
10:33 48 °F 32 °F 29.9 in NNE 8.7 mph 11.9 mph 51 % 0 in
10:38 47.1 °F 30.2 °F 29.9 in NW 10.3 mph 13.6 mph 51 % 0 in
10:43 46.9 °F 30.2 °F 29.9 in North 4.9 mph 13.6 mph 52 % 0 in
10:48 46.6 °F 30.2 °F 29.9 in North 7.6 mph 13.4 mph 52 % 0 in
10:52 47.3 °F 32 °F 29.9 in North 11 mph 13.4 mph 53 % 0 in
10:57 47.5 °F 32 °F 29.9 in West 7.8 mph 13.4 mph 53 % 0 in
11:02 48.6 °F 33.8 °F 29.9 in NNW 10.1 mph 12.5 mph 54 % 0 in
11:07 48.2 °F 32 °F 29.9 in NE 3.1 mph 12.5 mph 53 % 0 in
11:12 48.4 °F 32 °F 29.9 in North 5.4 mph 10.5 mph 53 % 0 in
11:17 49.6 °F 33.8 °F 29.9 in NNW 5.8 mph 12.5 mph 53 % 0 in
11:22 48.6 °F 32 °F 29.9 in North 6 mph 12.5 mph 52 % 0 in
11:27 47.8 °F 33.8 °F 29.9 in WNW 6.3 mph 11 mph 54 % 0 in
11:32 50.2 °F 33.8 °F 29.9 in North 3.6 mph 11 mph 54 % 0 in
11:37 51.8 °F 35.6 °F 29.9 in NNW 4.3 mph 8.1 mph 53 % 0 in
11:42 52 °F 35.6 °F 29.9 in North 10.1 mph 11 mph 52 % 0 in
11:47 51.6 °F 35.6 °F 29.9 in NW 2.9 mph 11 mph 52 % 0 in
11:53 50.9 °F 33.8 °F 29.9 in NNW 8.5 mph 12.1 mph 51 % 0 in
11:58 52 °F 33.8 °F 29.9 in WNW 4.3 mph 12.1 mph 50 % 0 in
12:03 50.2 °F 32 °F 29.9 in NNW 8.5 mph 10.5 mph 50 % 0 in
12:08 52.2 °F 33.8 °F 29.8 in WNW 5.4 mph 12.1 mph 50 % 0 in
12:13 52.3 °F 33.8 °F 29.8 in WNW 8.5 mph 12.1 mph 50 % 0 in
12:18 50.2 °F 32 °F 29.8 in NNE 8.5 mph 12.5 mph 50 % 0 in
12:23 52 °F 33.8 °F 29.8 in NNE 4.9 mph 12.5 mph 50 % 0 in
12:28 52.2 °F 33.8 °F 29.8 in North 10.3 mph 15.2 mph 49 % 0 in
12:33 53.4 °F 35.6 °F 29.8 in NNE 4.9 mph 15.2 mph 49 % 0 in
12:35 53.8 °F 35.6 °F 29.8 in NNE 4.3 mph 15.2 mph 48 % 0 in
12:40 50.4 °F 32 °F 29.9 in NNE 14.3 mph 14.8 mph 48 % 0 in
12:45 49.3 °F 30.2 °F 29.9 in NNE 6.5 mph 14.8 mph 48 % 0 in
12:50 51.4 °F 32 °F 29.9 in North 7.8 mph 14.3 mph 48 % 0 in
12:55 52 °F 33.8 °F 29.9 in North 3.1 mph 12.1 mph 48 % 0 in
13:00 50 °F 32 °F 29.9 in NNW 8.7 mph 12.1 mph 48 % 0 in
13:05 50.5 °F 32 °F 29.9 in NNW 5.8 mph 10.7 mph 49 % 0 in
13:10 52.9 °F 33.8 °F 29.9 in NNW 6.7 mph 8.5 mph 49 % 0 in
13:15 54.1 °F 35.6 °F 29.9 in NW 6.3 mph 12.5 mph 48 % 0 in
13:21 53.6 °F 35.6 °F 29.9 in North 4 mph 12.5 mph 48 % 0 in
13:26 55 °F 35.6 °F 29.9 in NNW 9.4 mph 14.8 mph 46 % 0 in
13:31 56.1 °F 35.6 °F 29.9 in WNW 4.3 mph 14.8 mph 46 % 0 in
13:36 54.7 °F 33.8 °F 29.9 in NNW 7.6 mph 11 mph 45 % 0 in
13:41 52.3 °F 32 °F 29.9 in NNW 14.5 mph 14.5 mph 45 % 0 in
13:46 54.5 °F 33.8 °F 29.9 in WNW 5.4 mph 14.5 mph 45 % 0 in
13:51 55.6 °F 35.6 °F 29.9 in NW 6.7 mph 14.5 mph 46 % 0 in
13:56 55.8 °F 35.6 °F 29.9 in North 6 mph 14.5 mph 46 % 0 in
14:01 56.1 °F 35.6 °F 29.9 in NW 4.9 mph 10.5 mph 45 % 0 in
14:06 56.8 °F 35.6 °F 29.9 in North 6.5 mph 8.1 mph 45 % 0 in
14:11 56.5 °F 35.6 °F 29.9 in NNE 5.4 mph 10.3 mph 45 % 0 in
14:16 56.1 °F 35.6 °F 29.9 in NNW 10.1 mph 11.2 mph 44 % 0 in
14:21 55.9 °F 35.6 °F 29.9 in NNE 7.4 mph 11.2 mph 44 % 0 in
14:26 54.7 °F 33.8 °F 29.9 in NE 8.1 mph 15.7 mph 45 % 0 in
14:31 53.4 °F 33.8 °F 29.9 in NE 10.1 mph 15.7 mph 45 % 0 in
14:36 54.9 °F 35.6 °F 29.9 in North 8.5 mph 12.5 mph 46 % 0 in
14:41 53.4 °F 33.8 °F 29.9 in NW 5.6 mph 11.2 mph 45 % 0 in
14:46 52.5 °F 32 °F 29.9 in NNE 11 mph 11.2 mph 45 % 0 in
14:51 52 °F 32 °F 29.9 in North 11.9 mph 11.9 mph 45 % 0 in
14:56 53.2 °F 32 °F 29.9 in North 4 mph 11.9 mph 45 % 0 in
15:01 54 °F 33.8 °F 29.9 in North 8.5 mph 11 mph 45 % 0 in
15:06 55 °F 35.6 °F 29.9 in NE 13.4 mph 14.3 mph 46 % 0 in
15:11 52.2 °F 32 °F 29.9 in North 6 mph 14.3 mph 45 % 0 in
15:17 51.1 °F 30.2 °F 29.9 in North 7.6 mph 11 mph 44 % 0 in
15:22 51.8 °F 32 °F 29.9 in WNW 6.3 mph 10.3 mph 45 % 0 in
15:27 53.6 °F 32 °F 29.9 in North 7.4 mph 11.4 mph 43 % 0 in
15:32 54 °F 32 °F 29.9 in NW 2.9 mph 11.4 mph 43 % 0 in
15:37 54.1 °F 32 °F 29.9 in North 3.6 mph 11.2 mph 43 % 0 in
15:42 54.1 °F 33.8 °F 29.9 in NNW 4.5 mph 11.2 mph 44 % 0 in
15:47 55 °F 33.8 °F 29.9 in NW 8.9 mph 11 mph 43 % 0 in
15:52 52.2 °F 30.2 °F 29.8 in NNW 5.4 mph 10.1 mph 43 % 0 in
15:57 54 °F 32 °F 29.8 in NNW 10.3 mph 12.5 mph 43 % 0 in
16:02 55.2 °F 33.8 °F 29.8 in NW 8.5 mph 12.5 mph 44 % 0 in
16:07 54.7 °F 33.8 °F 29.9 in NNW 7.8 mph 14.1 mph 43 % 0 in
16:12 55 °F 33.8 °F 29.9 in NNE 7.6 mph 14.1 mph 43 % 0 in
16:17 55.4 °F 33.8 °F 29.9 in North 7.2 mph 14.5 mph 43 % 0 in
16:22 55.9 °F 33.8 °F 29.9 in NE 5.8 mph 14.5 mph 43 % 0 in
16:27 56.5 °F 33.8 °F 29.9 in NNE 11 mph 11 mph 42 % 0 in
16:32 56.1 °F 33.8 °F 29.9 in North 9.2 mph 13.2 mph 41 % 0 in
16:37 56.1 °F 33.8 °F 29.8 in NW 6 mph 13.2 mph 41 % 0 in
16:42 56.5 °F 33.8 °F 29.8 in North 6 mph 13 mph 40 % 0 in
16:47 56.7 °F 33.8 °F 29.8 in WNW 8.1 mph 12.5 mph 41 % 0 in
16:52 56.1 °F 33.8 °F 29.9 in NNE 10.7 mph 10.7 mph 41 % 0 in
16:57 56.3 °F 33.8 °F 29.9 in NNW 8.1 mph 12.3 mph 41 % 0 in
17:02 56.7 °F 33.8 °F 29.9 in NE 10.5 mph 12.3 mph 41 % 0 in
17:07 54.1 °F 32 °F 29.9 in NNW 7.8 mph 15.2 mph 41 % 0 in
17:12 53.6 °F 30.2 °F 29.9 in North 4 mph 15.2 mph 41 % 0 in
17:14 54.3 °F 32 °F 29.9 in NW 3.8 mph 14.5 mph 41 % 0 in
17:19 54.7 °F 32 °F 29.9 in North 7.8 mph 12.5 mph 41 % 0 in
17:24 54.5 °F 32 °F 29.9 in NE 6.3 mph 12.5 mph 40 % 0 in
17:29 54.9 °F 32 °F 29.9 in North 9.6 mph 13.2 mph 41 % 0 in
17:34 54.3 °F 30.2 °F 29.9 in NNW 6.3 mph 13.2 mph 40 % 0 in
17:39 54.5 °F 32 °F 29.9 in North 12.3 mph 13.4 mph 40 % 0 in
17:44 54 °F 30.2 °F 29.9 in NNW 7.6 mph 13.4 mph 39 % 0 in
17:49 54 °F 30.2 °F 29.9 in NNW 8.7 mph 12.5 mph 39 % 0 in
17:55 54.3 °F 30.2 °F 29.9 in NNW 7.4 mph 12.5 mph 39 % 0 in
18:00 53.8 °F 30.2 °F 29.9 in WNW 9.6 mph 12.1 mph 39 % 0 in
18:05 53.6 °F 28.4 °F 29.9 in NNW 5.6 mph 12.1 mph 38 % 0 in
18:10 54.7 °F 30.2 °F 29.8 in NNW 5.4 mph 9.8 mph 39 % 0 in
18:30 32 °F 30.2 °F 0 in Calm     0 % 0 in
18:35 53.4 °F 28.4 °F 29.9 in NW 5.4 mph 7.6 mph 37 % 0 in
18:40 53.2 °F 26.6 °F 29.8 in North 1.3 mph 8.5 mph 37 % 0 in
18:45 53.2 °F 26.6 °F 29.8 in NNE 3.6 mph 8.5 mph 37 % 0 in
18:50 53.1 °F 26.6 °F 29.8 in NNW 6.3 mph 10.5 mph 37 % 0 in
18:55 53.1 °F 26.6 °F 29.9 in NW 4.9 mph 10.7 mph 37 % 0 in
19:00 53.1 °F 26.6 °F 29.9 in NNE 3.4 mph 10.7 mph 37 % 0 in
19:05 53.2 °F 26.6 °F 29.9 in WNW 3.6 mph 8.5 mph 37 % 0 in
19:10 52.9 °F 26.6 °F 29.9 in WNW 2.5 mph 8.5 mph 37 % 0 in
19:15 52.9 °F 28.4 °F 29.9 in NNE 7.8 mph 8.1 mph 38 % 0 in
19:20 52.3 °F 26.6 °F 29.9 in NNW 7.2 mph 7.8 mph 37 % 0 in
19:25 52.3 °F 26.6 °F 29.8 in NNW 5.4 mph 7.4 mph 38 % 0 in
19:30 52 °F 26.6 °F 29.8 in North 5.4 mph 8.7 mph 38 % 0 in
19:35 51.6 °F 26.6 °F 29.8 in North 6.9 mph 8.7 mph 38 % 0 in
19:40 51.1 °F 26.6 °F 29.9 in NNW 5.8 mph 8.7 mph 38 % 0 in
19:45 50.5 °F 26.6 °F 29.9 in North 4.9 mph 7.8 mph 38 % 0 in
19:48 50.2 °F 24.8 °F 29.9 in NNW 7.2 mph 7.8 mph 38 % 0 in
19:53 49.6 °F 24.8 °F 29.9 in NNW 5.6 mph 7.8 mph 38 % 0 in
19:58 48.7 °F 24.8 °F 29.9 in NNE 2.9 mph 7.8 mph 38 % 0 in
20:04 48.2 °F 23 °F 29.9 in NNW 3.4 mph 7.4 mph 38 % 0 in
20:09 47.8 °F 24.8 °F 29.9 in Calm   6 mph 39 % 0 in
20:14 47.3 °F 24.8 °F 29.9 in NNW 3.4 mph 6 mph 39 % 0 in
20:19 46.9 °F 23 °F 29.9 in WNW 2.7 mph 5.8 mph 39 % 0 in
20:24 46.8 °F 23 °F 29.9 in West 2 mph 6.5 mph 39 % 0 in
20:29 46.4 °F 23 °F 29.9 in North 2 mph 6.5 mph 39 % 0 in
20:34 46.2 °F 23 °F 29.9 in NNW 1.1 mph 5.8 mph 40 % 0 in
20:39 45.9 °F 23 °F 29.8 in Calm   7.2 mph 40 % 0 in
20:44 45.5 °F 23 °F 29.8 in WNW 2.2 mph 7.2 mph 41 % 0 in
20:49 45.3 °F 23 °F 29.8 in Calm   5.6 mph 41 % 0 in
20:54 45.1 °F 23 °F 29.9 in Calm   5.6 mph 41 % 0 in
20:59 44.6 °F 23 °F 29.9 in WNW 2.7 mph 4 mph 42 % 0 in
21:04 44.2 °F 23 °F 29.9 in North 2.9 mph 4 mph 42 % 0 in
21:09 43.9 °F 23 °F 29.9 in NW 2.5 mph 3.8 mph 42 % 0 in
21:14 43.5 °F 23 °F 29.9 in NNW 2.7 mph 3.1 mph 43 % 0 in
21:19 43 °F 21.2 °F 29.9 in Calm   3.1 mph 43 % 0 in
21:24 42.6 °F 21.2 °F 29.9 in Calm   2 mph 43 % 0 in
21:29 42.4 °F 23 °F 29.9 in Calm     44 % 0 in
21:34 42.1 °F 23 °F 29.9 in Calm   1.3 mph 44 % 0 in
21:40 41.5 °F 21.2 °F 29.9 in Calm   1.6 mph 44 % 0 in
21:45 41 °F 21.2 °F 29.9 in Calm   1.6 mph 44 % 0 in
21:50 40.5 °F 21.2 °F 29.9 in Calm     45 % 0 in
21:55 39.9 °F 21.2 °F 29.9 in WNW 1.1 mph 1.1 mph 45 % 0 in
22:00 39.4 °F 21.2 °F 29.9 in Calm   1.1 mph 46 % 0 in
22:05 39 °F 21.2 °F 29.8 in Calm     47 % 0 in
22:06 39 °F 21.2 °F 29.8 in Calm     47 % 0 in
22:11 38.5 °F 21.2 °F 29.8 in Calm     47 % 0 in
22:16 37.9 °F 19.4 °F 29.8 in Calm     47 % 0 in
22:21 37.6 °F 19.4 °F 29.9 in Calm     48 % 0 in
22:26 37 °F 21.2 °F 29.9 in Calm     49 % 0 in
22:31 36.7 °F 21.2 °F 29.9 in Calm     50 % 0 in
22:36 36.3 °F 19.4 °F 29.9 in Calm     50 % 0 in
22:41 36.1 °F 21.2 °F 29.9 in Calm     51 % 0 in
22:46 35.6 °F 19.4 °F 29.9 in Calm     51 % 0 in
22:51 35.2 °F 19.4 °F 29.9 in Calm     52 % 0 in
22:56 35.1 °F 19.4 °F 29.9 in Calm     53 % 0 in
23:01 35.1 °F 21.2 °F 29.9 in Calm     54 % 0 in
23:06 34.9 °F 21.2 °F 29.9 in Calm     54 % 0 in
23:11 34.7 °F 21.2 °F 29.9 in Calm     54 % 0 in
23:16 34.3 °F 19.4 °F 29.9 in WNW 2 mph 2.5 mph 53 % 0 in
23:21 34 °F 19.4 °F 29.9 in Calm   2.5 mph 54 % 0 in
23:27 33.8 °F 19.4 °F 29.9 in Calm   2.2 mph 54 % 0 in
23:32 33.6 °F 19.4 °F 29.9 in Calm     54 % 0 in
23:37 33.8 °F 19.4 °F 29.9 in Calm     54 % 0 in
23:42 34.2 °F 21.2 °F 29.9 in WNW 2.7 mph 3.8 mph 56 % 0 in
23:47 34.9 °F 21.2 °F 29.9 in West 3.8 mph 4.9 mph 57 % 0 in
23:52 35.4 °F 23 °F 29.9 in WNW 2 mph 5.4 mph 58 % 0 in
23:57 35.6 °F 23 °F 29.9 in West 4 mph 5.4 mph 59 % 0 in
Le Gheer Warneton
Courtoisie de Weather Underground - 2.25 mb

Mise a jour : 16-12-17 15:34:12
Généré par Cumulus 1.9.4 (1099)